sensor_id;sensor_type;location;lat;lon;timestamp;pressure;altitude;pressure_sealevel;temperature;humidity
18201;BME280;9226;47.858;9.594;2023-04-07T00:01:41;95229.84;;;7.37;64.01
18201;BME280;9226;47.858;9.594;2023-04-07T00:04:07;95223.25;;;7.43;63.50
18201;BME280;9226;47.858;9.594;2023-04-07T00:06:32;95220.00;;;7.39;63.79
18201;BME280;9226;47.858;9.594;2023-04-07T00:08:57;95222.88;;;7.36;64.60
18201;BME280;9226;47.858;9.594;2023-04-07T00:11:23;95216.22;;;7.43;62.57
18201;BME280;9226;47.858;9.594;2023-04-07T00:13:48;95219.78;;;7.42;63.87
18201;BME280;9226;47.858;9.594;2023-04-07T00:16:14;95217.16;;;7.42;64.62
18201;BME280;9226;47.858;9.594;2023-04-07T00:18:39;95214.53;;;7.42;64.48
18201;BME280;9226;47.858;9.594;2023-04-07T00:21:04;95202.47;;;7.38;64.58
18201;BME280;9226;47.858;9.594;2023-04-07T00:23:30;95205.28;;;7.24;66.22
18201;BME280;9226;47.858;9.594;2023-04-07T00:25:55;95198.84;;;7.28;64.87
18201;BME280;9226;47.858;9.594;2023-04-07T00:28:21;95194.31;;;7.17;66.19
18201;BME280;9226;47.858;9.594;2023-04-07T00:30:46;95198.56;;;7.20;65.61
18201;BME280;9226;47.858;9.594;2023-04-07T00:33:12;95187.25;;;7.18;66.53
18201;BME280;9226;47.858;9.594;2023-04-07T00:35:37;95179.31;;;7.18;65.35
18201;BME280;9226;47.858;9.594;2023-04-07T00:38:02;95178.31;;;7.07;67.79
18201;BME280;9226;47.858;9.594;2023-04-07T00:40:28;95180.84;;;7.09;66.15
18201;BME280;9226;47.858;9.594;2023-04-07T00:42:53;95178.94;;;7.11;65.78
18201;BME280;9226;47.858;9.594;2023-04-07T00:45:19;95171.88;;;7.12;65.18
18201;BME280;9226;47.858;9.594;2023-04-07T00:47:44;95180.03;;;7.09;65.54
18201;BME280;9226;47.858;9.594;2023-04-07T00:50:10;95172.81;;;7.11;65.51
18201;BME280;9226;47.858;9.594;2023-04-07T00:52:35;95167.56;;;7.11;65.14
18201;BME280;9226;47.858;9.594;2023-04-07T00:55:01;95170.47;;;7.19;65.43
18201;BME280;9226;47.858;9.594;2023-04-07T00:57:26;95162.34;;;7.22;64.47
18201;BME280;9226;47.858;9.594;2023-04-07T00:59:52;95154.19;;;7.25;64.33
18201;BME280;9226;47.858;9.594;2023-04-07T01:07:35;95135.00;;;7.23;66.17
18201;BME280;9226;47.858;9.594;2023-04-07T01:10:05;95131.69;;;7.32;64.36
18201;BME280;9226;47.858;9.594;2023-04-07T01:12:35;95127.59;;;7.28;65.66
18201;BME280;9226;47.858;9.594;2023-04-07T01:15:07;95123.94;;;7.18;66.09
18201;BME280;9226;47.858;9.594;2023-04-07T01:17:34;95121.41;;;7.16;65.47
18201;BME280;9226;47.858;9.594;2023-04-07T01:20:02;95124.69;;;7.20;64.74
18201;BME280;9226;47.858;9.594;2023-04-07T01:22:42;95122.53;;;7.25;65.49
18201;BME280;9226;47.858;9.594;2023-04-07T01:25:52;95115.78;;;7.21;66.07
18201;BME280;9226;47.858;9.594;2023-04-07T01:30:42;95110.81;;;7.29;64.47
18201;BME280;9226;47.858;9.594;2023-04-07T01:33:09;95101.66;;;7.22;65.38
18201;BME280;9226;47.858;9.594;2023-04-07T01:35:36;95097.44;;;7.19;64.95
18201;BME280;9226;47.858;9.594;2023-04-07T01:38:02;95100.00;;;7.08;66.42
18201;BME280;9226;47.858;9.594;2023-04-07T01:40:28;95093.28;;;7.04;67.16
18201;BME280;9226;47.858;9.594;2023-04-07T01:42:55;95091.66;;;7.14;65.17
18201;BME280;9226;47.858;9.594;2023-04-07T01:45:23;95089.00;;;7.14;64.58
18201;BME280;9226;47.858;9.594;2023-04-07T01:47:49;95100.66;;;7.12;65.35
18201;BME280;9226;47.858;9.594;2023-04-07T01:50:15;95083.13;;;7.11;65.85
18201;BME280;9226;47.858;9.594;2023-04-07T01:52:42;95080.38;;;7.12;65.81
18201;BME280;9226;47.858;9.594;2023-04-07T01:55:09;95089.31;;;6.98;67.55
18201;BME280;9226;47.858;9.594;2023-04-07T01:57:35;95079.34;;;7.02;66.31
18201;BME280;9226;47.858;9.594;2023-04-07T02:00:01;95080.72;;;7.07;65.08
18201;BME280;9226;47.858;9.594;2023-04-07T02:02:27;95082.19;;;7.12;64.71
18201;BME280;9226;47.858;9.594;2023-04-07T02:05:03;95074.72;;;7.05;65.66
18201;BME280;9226;47.858;9.594;2023-04-07T02:07:49;95073.88;;;7.05;65.96
18201;BME280;9226;47.858;9.594;2023-04-07T02:10:16;95076.53;;;7.16;64.34
18201;BME280;9226;47.858;9.594;2023-04-07T02:12:45;95079.94;;;7.18;64.98
18201;BME280;9226;47.858;9.594;2023-04-07T02:15:11;95071.69;;;7.23;65.53
18201;BME280;9226;47.858;9.594;2023-04-07T02:17:39;95067.84;;;7.27;65.59
18201;BME280;9226;47.858;9.594;2023-04-07T02:20:08;95064.38;;;7.27;66.57
18201;BME280;9226;47.858;9.594;2023-04-07T02:22:35;95062.34;;;7.30;65.57
18201;BME280;9226;47.858;9.594;2023-04-07T02:25:01;95070.03;;;7.33;65.15
18201;BME280;9226;47.858;9.594;2023-04-07T02:27:26;95053.25;;;7.34;65.05
18201;BME280;9226;47.858;9.594;2023-04-07T02:29:52;95057.59;;;7.35;65.26
18201;BME280;9226;47.858;9.594;2023-04-07T02:32:18;95057.59;;;7.35;65.39
18201;BME280;9226;47.858;9.594;2023-04-07T02:34:43;95054.47;;;7.41;64.56
18201;BME280;9226;47.858;9.594;2023-04-07T02:37:09;95044.66;;;7.43;64.36
18201;BME280;9226;47.858;9.594;2023-04-07T02:39:34;95042.25;;;7.40;64.89
18201;BME280;9226;47.858;9.594;2023-04-07T02:41:59;95036.72;;;7.43;64.30
18201;BME280;9226;47.858;9.594;2023-04-07T02:44:25;95035.03;;;7.42;64.35
18201;BME280;9226;47.858;9.594;2023-04-07T02:46:50;95032.41;;;7.42;63.95
18201;BME280;9226;47.858;9.594;2023-04-07T02:49:16;95032.50;;;7.41;64.27
18201;BME280;9226;47.858;9.594;2023-04-07T02:51:41;95024.94;;;7.36;63.81
18201;BME280;9226;47.858;9.594;2023-04-07T02:54:06;95024.00;;;7.37;63.13
18201;BME280;9226;47.858;9.594;2023-04-07T02:56:32;95024.00;;;7.37;62.69
18201;BME280;9226;47.858;9.594;2023-04-07T02:58:57;95023.16;;;7.37;62.63
18201;BME280;9226;47.858;9.594;2023-04-07T03:01:23;95021.69;;;7.33;62.02
18201;BME280;9226;47.858;9.594;2023-04-07T03:03:48;95026.75;;;7.36;62.20
18201;BME280;9226;47.858;9.594;2023-04-07T03:06:13;95031.66;;;7.29;63.55
18201;BME280;9226;47.858;9.594;2023-04-07T03:08:39;95028.25;;;7.27;64.05
18201;BME280;9226;47.858;9.594;2023-04-07T03:11:06;95028.50;;;7.24;64.71
18201;BME280;9226;47.858;9.594;2023-04-07T03:13:31;95029.81;;;7.18;65.19
18201;BME280;9226;47.858;9.594;2023-04-07T03:15:57;95022.50;;;7.22;64.01
18201;BME280;9226;47.858;9.594;2023-04-07T03:18:22;95019.13;;;7.20;64.66
18201;BME280;9226;47.858;9.594;2023-04-07T03:20:47;95017.22;;;7.22;64.43
18201;BME280;9226;47.858;9.594;2023-04-07T03:23:13;95007.50;;;7.22;64.65
18201;BME280;9226;47.858;9.594;2023-04-07T03:25:39;95009.19;;;7.23;64.27
18201;BME280;9226;47.858;9.594;2023-04-07T03:28:04;95011.94;;;7.22;64.72
18201;BME280;9226;47.858;9.594;2023-04-07T03:30:30;95017.22;;;7.22;65.13
18201;BME280;9226;47.858;9.594;2023-04-07T03:32:55;95011.94;;;7.22;65.41
18201;BME280;9226;47.858;9.594;2023-04-07T03:35:20;95004.16;;;7.20;65.51
18201;BME280;9226;47.858;9.594;2023-04-07T03:37:46;95008.59;;;7.20;65.25
18201;BME280;9226;47.858;9.594;2023-04-07T03:40:11;95008.47;;;7.21;65.15
18201;BME280;9226;47.858;9.594;2023-04-07T03:42:37;94998.41;;;7.27;64.73
18201;BME280;9226;47.858;9.594;2023-04-07T03:45:02;94997.56;;;7.26;64.77
18201;BME280;9226;47.858;9.594;2023-04-07T03:47:28;95001.75;;;7.29;64.25
18201;BME280;9226;47.858;9.594;2023-04-07T03:49:53;94991.09;;;7.30;64.38
18201;BME280;9226;47.858;9.594;2023-04-07T03:52:18;94993.00;;;7.28;64.54
18201;BME280;9226;47.858;9.594;2023-04-07T03:54:44;94991.09;;;7.30;64.51
18201;BME280;9226;47.858;9.594;2023-04-07T03:57:09;94998.19;;;7.30;64.73
18201;BME280;9226;47.858;9.594;2023-04-07T03:59:35;94987.75;;;7.28;64.88
18201;BME280;9226;47.858;9.594;2023-04-07T04:02:00;94990.72;;;7.23;65.87
18201;BME280;9226;47.858;9.594;2023-04-07T04:04:25;94985.31;;;7.25;65.39
18201;BME280;9226;47.858;9.594;2023-04-07T04:06:51;94985.31;;;7.25;65.03
18201;BME280;9226;47.858;9.594;2023-04-07T04:09:16;94984.63;;;7.23;65.01
18201;BME280;9226;47.858;9.594;2023-04-07T04:11:42;94969.50;;;7.25;64.53
18201;BME280;9226;47.858;9.594;2023-04-07T04:14:07;94968.56;;;7.26;64.56
18201;BME280;9226;47.858;9.594;2023-04-07T04:16:33;94965.69;;;7.29;63.85
18201;BME280;9226;47.858;9.594;2023-04-07T04:19:00;94955.84;;;7.31;63.75
18201;BME280;9226;47.858;9.594;2023-04-07T04:21:25;94955.84;;;7.31;62.76
18201;BME280;9226;47.858;9.594;2023-04-07T04:23:51;94954.91;;;7.32;62.75
18201;BME280;9226;47.858;9.594;2023-04-07T04:26:17;94957.53;;;7.32;62.24
18201;BME280;9226;47.858;9.594;2023-04-07T04:28:42;94956.78;;;7.30;61.86
18201;BME280;9226;47.858;9.594;2023-04-07T04:31:07;94953.44;;;7.28;62.28
18201;BME280;9226;47.858;9.594;2023-04-07T04:33:33;94956.78;;;7.30;61.71
18201;BME280;9226;47.858;9.594;2023-04-07T04:35:58;94952.25;;;7.32;61.65
18201;BME280;9226;47.858;9.594;2023-04-07T04:38:23;94953.09;;;7.33;62.06
18201;BME280;9226;47.858;9.594;2023-04-07T04:40:49;94958.25;;;7.34;61.73
18201;BME280;9226;47.858;9.594;2023-04-07T04:43:15;94957.53;;;7.32;62.59
18201;BME280;9226;47.858;9.594;2023-04-07T04:45:40;94957.53;;;7.32;62.71
18201;BME280;9226;47.858;9.594;2023-04-07T04:48:05;94958.47;;;7.31;63.09
18201;BME280;9226;47.858;9.594;2023-04-07T04:50:31;94967.13;;;7.33;63.19
18201;BME280;9226;47.858;9.594;2023-04-07T04:52:56;94962.06;;;7.30;64.00
18201;BME280;9226;47.858;9.594;2023-04-07T04:55:22;94964.59;;;7.32;64.26
18201;BME280;9226;47.858;9.594;2023-04-07T04:57:47;94965.44;;;7.32;63.71
18201;BME280;9226;47.858;9.594;2023-04-07T05:00:13;94965.16;;;7.24;64.43
18201;BME280;9226;47.858;9.594;2023-04-07T05:02:38;94969.63;;;7.23;64.16
18201;BME280;9226;47.858;9.594;2023-04-07T05:05:04;94970.56;;;7.22;63.90
18201;BME280;9226;47.858;9.594;2023-04-07T05:07:30;94970.44;;;7.24;63.52
18201;BME280;9226;47.858;9.594;2023-04-07T05:09:55;94959.88;;;7.24;63.48
18201;BME280;9226;47.858;9.594;2023-04-07T05:12:20;94966.16;;;7.23;63.38
18201;BME280;9226;47.858;9.594;2023-04-07T05:14:46;94970.56;;;7.22;63.00
18201;BME280;9226;47.858;9.594;2023-04-07T05:17:11;94962.53;;;7.24;61.72
18201;BME280;9226;47.858;9.594;2023-04-07T05:19:37;94965.38;;;7.10;60.82
18201;BME280;9226;47.858;9.594;2023-04-07T05:22:02;94961.31;;;7.17;60.63
18201;BME280;9226;47.858;9.594;2023-04-07T05:24:28;94960.34;;;7.18;60.16
18201;BME280;9226;47.858;9.594;2023-04-07T05:26:54;94954.84;;;7.21;59.97
18201;BME280;9226;47.858;9.594;2023-04-07T05:29:20;94960.75;;;7.24;59.67
18201;BME280;9226;47.858;9.594;2023-04-07T05:31:46;94963.47;;;7.12;59.14
18201;BME280;9226;47.858;9.594;2023-04-07T05:34:11;94961.44;;;7.15;59.33
18201;BME280;9226;47.858;9.594;2023-04-07T05:36:36;94959.88;;;7.13;59.02
18201;BME280;9226;47.858;9.594;2023-04-07T05:39:02;94961.31;;;7.17;59.26
18201;BME280;9226;47.858;9.594;2023-04-07T05:41:27;94952.97;;;7.34;58.91
18201;BME280;9226;47.858;9.594;2023-04-07T05:43:53;94959.22;;;7.45;59.01
18201;BME280;9226;47.858;9.594;2023-04-07T05:46:18;94965.25;;;7.58;59.06
18201;BME280;9226;47.858;9.594;2023-04-07T05:48:43;94966.94;;;7.70;59.01
18201;BME280;9226;47.858;9.594;2023-04-07T05:51:09;94967.41;;;7.75;59.05
18201;BME280;9226;47.858;9.594;2023-04-07T05:53:34;94966.00;;;7.94;59.71
18201;BME280;9226;47.858;9.594;2023-04-07T05:55:59;94962.47;;;8.27;59.07
18201;BME280;9226;47.858;9.594;2023-04-07T05:58:25;94961.00;;;8.46;57.60
18201;BME280;9226;47.858;9.594;2023-04-07T06:00:52;94959.66;;;8.63;56.80
18201;BME280;9226;47.858;9.594;2023-04-07T06:03:17;94955.31;;;8.73;57.25
18201;BME280;9226;47.858;9.594;2023-04-07T06:05:45;94958.75;;;8.85;56.88
18201;BME280;9226;47.858;9.594;2023-04-07T06:08:10;94954.97;;;8.99;56.24
18201;BME280;9226;47.858;9.594;2023-04-07T06:10:36;94953.47;;;9.06;55.37
18201;BME280;9226;47.858;9.594;2023-04-07T06:13:01;94961.13;;;9.20;55.21
18201;BME280;9226;47.858;9.594;2023-04-07T06:15:26;94952.50;;;9.28;54.87
18201;BME280;9226;47.858;9.594;2023-04-07T06:17:52;94950.72;;;9.29;54.37
18201;BME280;9226;47.858;9.594;2023-04-07T06:20:17;94950.09;;;9.36;54.24
18201;BME280;9226;47.858;9.594;2023-04-07T06:22:45;94950.00;;;9.48;54.09
18201;BME280;9226;47.858;9.594;2023-04-07T06:25:11;94944.69;;;9.69;54.23
18201;BME280;9226;47.858;9.594;2023-04-07T06:27:36;94940.03;;;9.82;53.64
18201;BME280;9226;47.858;9.594;2023-04-07T06:30:02;94943.00;;;9.99;53.40
18201;BME280;9226;47.858;9.594;2023-04-07T06:32:27;94945.44;;;10.11;52.75
18201;BME280;9226;47.858;9.594;2023-04-07T06:34:53;94935.56;;;10.23;52.31
18201;BME280;9226;47.858;9.594;2023-04-07T06:37:18;94941.88;;;10.32;51.49
18201;BME280;9226;47.858;9.594;2023-04-07T06:39:44;94943.25;;;10.26;50.25
18201;BME280;9226;47.858;9.594;2023-04-07T06:42:09;94931.31;;;10.42;50.16
18201;BME280;9226;47.858;9.594;2023-04-07T06:44:35;94929.81;;;10.68;50.32
18201;BME280;9226;47.858;9.594;2023-04-07T06:47:00;94932.19;;;10.81;48.77
18201;BME280;9226;47.858;9.594;2023-04-07T06:49:25;94925.50;;;11.26;49.09
18201;BME280;9226;47.858;9.594;2023-04-07T06:51:51;94926.53;;;11.72;48.88
18201;BME280;9226;47.858;9.594;2023-04-07T06:54:16;94926.00;;;12.06;47.42
18201;BME280;9226;47.858;9.594;2023-04-07T06:56:42;94931.63;;;12.59;47.90
18201;BME280;9226;47.858;9.594;2023-04-07T06:59:08;94928.91;;;13.23;46.79
18201;BME280;9226;47.858;9.594;2023-04-07T07:01:33;94924.63;;;13.74;46.52
18201;BME280;9226;47.858;9.594;2023-04-07T07:03:59;94930.16;;;14.07;45.54
18201;BME280;9226;47.858;9.594;2023-04-07T07:06:25;94926.03;;;14.47;44.81
18201;BME280;9226;47.858;9.594;2023-04-07T07:08:52;94927.47;;;14.84;43.52
18201;BME280;9226;47.858;9.594;2023-04-07T07:11:17;94925.19;;;15.14;42.47
18201;BME280;9226;47.858;9.594;2023-04-07T07:13:43;94930.84;;;15.02;41.96
18201;BME280;9226;47.858;9.594;2023-04-07T07:16:09;94934.56;;;15.26;42.24
18201;BME280;9226;47.858;9.594;2023-04-07T07:18:37;94937.22;;;15.76;42.87
18201;BME280;9226;47.858;9.594;2023-04-07T07:21:02;94941.19;;;16.21;42.23
18201;BME280;9226;47.858;9.594;2023-04-07T07:23:28;94935.53;;;16.47;41.52
18201;BME280;9226;47.858;9.594;2023-04-07T07:25:53;94936.56;;;16.77;40.74
18201;BME280;9226;47.858;9.594;2023-04-07T07:28:18;94935.00;;;17.23;39.56
18201;BME280;9226;47.858;9.594;2023-04-07T07:30:46;94924.69;;;17.58;38.50
18201;BME280;9226;47.858;9.594;2023-04-07T07:33:12;94927.19;;;17.97;38.75
18201;BME280;9226;47.858;9.594;2023-04-07T07:35:37;94926.94;;;18.37;36.11
18201;BME280;9226;47.858;9.594;2023-04-07T07:38:03;94925.63;;;19.14;37.34
18201;BME280;9226;47.858;9.594;2023-04-07T07:40:28;94935.34;;;20.01;34.53
18201;BME280;9226;47.858;9.594;2023-04-07T07:42:54;94932.75;;;20.15;33.74
18201;BME280;9226;47.858;9.594;2023-04-07T07:45:19;94931.69;;;20.09;32.92
18201;BME280;9226;47.858;9.594;2023-04-07T07:47:45;94933.00;;;20.20;31.98
18201;BME280;9226;47.858;9.594;2023-04-07T07:50:10;94933.16;;;19.83;32.21
18201;BME280;9226;47.858;9.594;2023-04-07T07:52:35;94933.72;;;19.36;31.36
18201;BME280;9226;47.858;9.594;2023-04-07T07:55:01;94928.19;;;19.22;31.96
18201;BME280;9226;47.858;9.594;2023-04-07T07:57:27;94938.53;;;19.04;32.51
18201;BME280;9226;47.858;9.594;2023-04-07T07:59:52;94941.84;;;18.84;32.23
18201;BME280;9226;47.858;9.594;2023-04-07T08:02:18;94931.00;;;18.33;33.58
18201;BME280;9226;47.858;9.594;2023-04-07T08:04:43;94933.06;;;18.16;34.15
18201;BME280;9226;47.858;9.594;2023-04-07T08:07:09;94925.56;;;17.73;34.67
18201;BME280;9226;47.858;9.594;2023-04-07T08:09:36;94929.75;;;17.52;34.28
18201;BME280;9226;47.858;9.594;2023-04-07T08:12:01;94933.25;;;17.30;34.88
18201;BME280;9226;47.858;9.594;2023-04-07T08:14:28;94929.13;;;17.65;35.17
18201;BME280;9226;47.858;9.594;2023-04-07T08:16:53;94923.13;;;18.16;34.38
18201;BME280;9226;47.858;9.594;2023-04-07T08:19:19;94928.72;;;18.96;34.30
18201;BME280;9226;47.858;9.594;2023-04-07T08:21:44;94925.38;;;20.30;33.83
18201;BME280;9226;47.858;9.594;2023-04-07T08:24:10;94932.97;;;21.52;31.47
18201;BME280;9226;47.858;9.594;2023-04-07T08:26:36;94931.13;;;22.26;30.58
18201;BME280;9226;47.858;9.594;2023-04-07T08:29:01;94929.84;;;23.07;29.15
18201;BME280;9226;47.858;9.594;2023-04-07T08:31:26;94918.97;;;22.75;27.89
18201;BME280;9226;47.858;9.594;2023-04-07T08:33:52;94926.69;;;23.23;27.80
18201;BME280;9226;47.858;9.594;2023-04-07T08:36:25;94927.31;;;23.57;27.78
18201;BME280;9226;47.858;9.594;2023-04-07T08:38:52;94929.50;;;23.42;27.72
18201;BME280;9226;47.858;9.594;2023-04-07T08:41:32;94923.06;;;22.91;27.71
18201;BME280;9226;47.858;9.594;2023-04-07T08:44:00;94923.84;;;23.05;27.94
18201;BME280;9226;47.858;9.594;2023-04-07T08:46:26;94929.50;;;23.42;27.51
18201;BME280;9226;47.858;9.594;2023-04-07T08:48:55;94931.44;;;23.66;27.40
18201;BME280;9226;47.858;9.594;2023-04-07T08:51:31;94921.81;;;24.02;27.00
18201;BME280;9226;47.858;9.594;2023-04-07T08:54:17;94928.72;;;23.98;26.22
18201;BME280;9226;47.858;9.594;2023-04-07T08:56:43;94921.72;;;24.34;25.97
18201;BME280;9226;47.858;9.594;2023-04-07T08:59:11;94923.25;;;24.49;26.29
18201;BME280;9226;47.858;9.594;2023-04-07T09:01:38;94925.06;;;24.55;26.01
18201;BME280;9226;47.858;9.594;2023-04-07T09:04:05;94920.28;;;24.57;26.28
18201;BME280;9226;47.858;9.594;2023-04-07T09:06:35;94924.03;;;24.93;26.37
18201;BME280;9226;47.858;9.594;2023-04-07T09:09:01;94926.06;;;25.16;25.60
18201;BME280;9226;47.858;9.594;2023-04-07T09:11:27;94917.63;;;25.55;25.36
18201;BME280;9226;47.858;9.594;2023-04-07T09:13:56;94919.31;;;25.68;24.88
18201;BME280;9226;47.858;9.594;2023-04-07T09:16:21;94922.47;;;25.53;25.30
18201;BME280;9226;47.858;9.594;2023-04-07T09:18:48;94918.03;;;25.82;25.08
18201;BME280;9226;47.858;9.594;2023-04-07T09:21:13;94916.38;;;25.69;24.69
18201;BME280;9226;47.858;9.594;2023-04-07T09:23:40;94916.72;;;26.03;25.22
18201;BME280;9226;47.858;9.594;2023-04-07T09:26:35;94912.19;;;25.55;23.47
18201;BME280;9226;47.858;9.594;2023-04-07T09:29:00;94916.94;;;25.59;24.91
18201;BME280;9226;47.858;9.594;2023-04-07T09:31:43;94913.13;;;24.81;23.71
18201;BME280;9226;47.858;9.594;2023-04-07T09:34:27;94913.03;;;24.69;23.90
18201;BME280;9226;47.858;9.594;2023-04-07T09:36:54;94917.25;;;24.65;24.49
18201;BME280;9226;47.858;9.594;2023-04-07T09:39:19;94920.50;;;24.30;24.89
18201;BME280;9226;47.858;9.594;2023-04-07T09:41:45;94913.31;;;23.99;25.50
18201;BME280;9226;47.858;9.594;2023-04-07T09:44:11;94915.53;;;23.77;25.59
18201;BME280;9226;47.858;9.594;2023-04-07T09:46:53;94917.34;;;23.19;26.25
18201;BME280;9226;47.858;9.594;2023-04-07T09:49:19;94921.56;;;22.10;27.14
18201;BME280;9226;47.858;9.594;2023-04-07T09:51:53;94923.22;;;21.64;27.63
18201;BME280;9226;47.858;9.594;2023-04-07T09:54:44;94922.25;;;21.03;27.51
18201;BME280;9226;47.858;9.594;2023-04-07T09:57:11;94922.81;;;20.92;27.95
18201;BME280;9226;47.858;9.594;2023-04-07T09:59:40;94918.66;;;20.48;27.87
18201;BME280;9226;47.858;9.594;2023-04-07T10:02:09;94911.50;;;20.27;28.96
18201;BME280;9226;47.858;9.594;2023-04-07T10:04:35;94915.06;;;19.99;29.20
18201;BME280;9226;47.858;9.594;2023-04-07T10:07:01;94917.81;;;19.84;29.75
18201;BME280;9226;47.858;9.594;2023-04-07T10:09:28;94909.69;;;19.56;30.46
18201;BME280;9226;47.858;9.594;2023-04-07T10:11:55;94914.91;;;19.36;31.16
18201;BME280;9226;47.858;9.594;2023-04-07T10:14:25;94913.66;;;19.38;32.20
18201;BME280;9226;47.858;9.594;2023-04-07T10:16:51;94910.91;;;19.53;31.13
18201;BME280;9226;47.858;9.594;2023-04-07T10:19:18;94913.09;;;19.64;31.80
18201;BME280;9226;47.858;9.594;2023-04-07T10:21:43;94907.47;;;19.87;32.27
18201;BME280;9226;47.858;9.594;2023-04-07T10:26:53;94906.34;;;20.67;30.43
18201;BME280;9226;47.858;9.594;2023-04-07T10:29:19;94908.97;;;21.02;29.92
18201;BME280;9226;47.858;9.594;2023-04-07T10:31:46;94908.09;;;20.94;29.19
18201;BME280;9226;47.858;9.594;2023-04-07T10:34:12;94911.59;;;20.82;29.04
18201;BME280;9226;47.858;9.594;2023-04-07T10:37:12;94909.81;;;20.25;28.82
18201;BME280;9226;47.858;9.594;2023-04-07T10:39:39;94910.72;;;20.39;29.70
18201;BME280;9226;47.858;9.594;2023-04-07T10:42:05;94919.94;;;19.88;29.23
18201;BME280;9226;47.858;9.594;2023-04-07T10:47:05;94915.59;;;18.86;30.00
18201;BME280;9226;47.858;9.594;2023-04-07T10:49:32;94910.69;;;18.75;30.04
18201;BME280;9226;47.858;9.594;2023-04-07T10:54:39;94917.03;;;18.22;31.07
18201;BME280;9226;47.858;9.594;2023-04-07T10:57:12;94912.75;;;18.13;31.47
18201;BME280;9226;47.858;9.594;2023-04-07T10:59:40;94915.09;;;18.16;32.53
18201;BME280;9226;47.858;9.594;2023-04-07T11:04:43;94919.69;;;17.93;33.92
18201;BME280;9226;47.858;9.594;2023-04-07T11:07:10;94914.56;;;17.83;33.77
18201;BME280;9226;47.858;9.594;2023-04-07T11:09:37;94918.69;;;17.70;34.03
18201;BME280;9226;47.858;9.594;2023-04-07T11:12:03;94920.84;;;17.75;34.62
18201;BME280;9226;47.858;9.594;2023-04-07T11:14:30;94918.88;;;17.69;34.62
18201;BME280;9226;47.858;9.594;2023-04-07T11:16:57;94921.47;;;17.39;34.65
18201;BME280;9226;47.858;9.594;2023-04-07T11:19:23;94915.50;;;17.52;34.92
18201;BME280;9226;47.858;9.594;2023-04-07T11:21:48;94922.94;;;17.27;34.94
18201;BME280;9226;47.858;9.594;2023-04-07T11:24:34;94928.16;;;16.89;36.06
18201;BME280;9226;47.858;9.594;2023-04-07T11:27:02;94922.28;;;16.93;35.42
18201;BME280;9226;47.858;9.594;2023-04-07T11:29:31;94928.00;;;16.90;35.31
18201;BME280;9226;47.858;9.594;2023-04-07T11:32:00;94930.03;;;16.80;35.75
18201;BME280;9226;47.858;9.594;2023-04-07T11:34:30;94921.28;;;16.55;36.45
18201;BME280;9226;47.858;9.594;2023-04-07T11:36:57;94933.94;;;16.69;36.70
18201;BME280;9226;47.858;9.594;2023-04-07T11:39:27;94923.88;;;16.71;36.59
18201;BME280;9226;47.858;9.594;2023-04-07T11:41:56;94930.50;;;16.83;36.98
18201;BME280;9226;47.858;9.594;2023-04-07T11:44:21;94931.91;;;16.79;36.72
18201;BME280;9226;47.858;9.594;2023-04-07T11:46:58;94934.81;;;16.61;36.76
18201;BME280;9226;47.858;9.594;2023-04-07T11:49:26;94930.56;;;16.75;36.87
18201;BME280;9226;47.858;9.594;2023-04-07T11:52:01;94936.09;;;16.74;37.21
18201;BME280;9226;47.858;9.594;2023-04-07T11:54:46;94929.56;;;16.76;36.99
18201;BME280;9226;47.858;9.594;2023-04-07T11:57:25;94934.56;;;16.88;36.02
18201;BME280;9226;47.858;9.594;2023-04-07T12:00:05;94931.91;;;16.71;36.81
18201;BME280;9226;47.858;9.594;2023-04-07T12:02:32;94937.50;;;16.61;37.22
18201;BME280;9226;47.858;9.594;2023-04-07T12:04:58;94934.34;;;16.97;36.06
18201;BME280;9226;47.858;9.594;2023-04-07T12:07:23;94934.00;;;16.61;36.14
18201;BME280;9226;47.858;9.594;2023-04-07T12:09:49;94936.69;;;16.13;36.90
18201;BME280;9226;47.858;9.594;2023-04-07T12:12:26;94928.66;;;16.13;37.41
18201;BME280;9226;47.858;9.594;2023-04-07T12:14:53;94929.06;;;16.41;36.71
18201;BME280;9226;47.858;9.594;2023-04-07T12:17:23;94935.50;;;16.63;36.77
18201;BME280;9226;47.858;9.594;2023-04-07T12:19:48;94942.31;;;16.66;36.53
18201;BME280;9226;47.858;9.594;2023-04-07T12:22:14;94941.13;;;16.37;36.29
18201;BME280;9226;47.858;9.594;2023-04-07T12:24:39;94954.81;;;16.42;36.22
18201;BME280;9226;47.858;9.594;2023-04-07T12:27:05;94945.13;;;16.33;36.64
18201;BME280;9226;47.858;9.594;2023-04-07T12:29:30;94931.75;;;16.73;35.92
18201;BME280;9226;47.858;9.594;2023-04-07T12:31:56;94945.28;;;16.79;35.50
18201;BME280;9226;47.858;9.594;2023-04-07T12:34:21;94938.81;;;16.66;35.10
18201;BME280;9226;47.858;9.594;2023-04-07T12:36:47;94937.78;;;16.75;34.60
18201;BME280;9226;47.858;9.594;2023-04-07T12:39:12;94938.09;;;17.11;34.30
18201;BME280;9226;47.858;9.594;2023-04-07T12:41:38;94935.22;;;17.36;33.88
18201;BME280;9226;47.858;9.594;2023-04-07T12:44:04;94936.41;;;17.57;33.45
18201;BME280;9226;47.858;9.594;2023-04-07T12:46:30;94936.84;;;17.83;33.41
18201;BME280;9226;47.858;9.594;2023-04-07T12:48:55;94928.88;;;17.98;33.22
18201;BME280;9226;47.858;9.594;2023-04-07T12:51:20;94925.28;;;18.06;32.46
18201;BME280;9226;47.858;9.594;2023-04-07T12:53:46;94929.59;;;18.07;31.81
18201;BME280;9226;47.858;9.594;2023-04-07T12:56:12;94927.03;;;18.29;31.98
18201;BME280;9226;47.858;9.594;2023-04-07T12:58:38;94930.63;;;18.66;32.25
18201;BME280;9226;47.858;9.594;2023-04-07T13:01:04;94924.50;;;18.72;32.21
18201;BME280;9226;47.858;9.594;2023-04-07T13:03:30;94930.16;;;18.92;30.87
18201;BME280;9226;47.858;9.594;2023-04-07T13:05:55;94925.88;;;18.83;30.50
18201;BME280;9226;47.858;9.594;2023-04-07T13:08:25;94923.56;;;18.94;30.29
18201;BME280;9226;47.858;9.594;2023-04-07T13:10:51;94927.72;;;18.97;30.79
18201;BME280;9226;47.858;9.594;2023-04-07T13:13:16;94928.06;;;19.09;30.90
18201;BME280;9226;47.858;9.594;2023-04-07T13:15:42;94921.81;;;19.23;30.38
18201;BME280;9226;47.858;9.594;2023-04-07T13:18:07;94926.91;;;19.18;29.04
18201;BME280;9226;47.858;9.594;2023-04-07T13:20:33;94922.56;;;19.17;29.80
18201;BME280;9226;47.858;9.594;2023-04-07T13:22:58;94927.56;;;19.20;28.86
18201;BME280;9226;47.858;9.594;2023-04-07T13:25:24;94924.22;;;19.18;29.24
18201;BME280;9226;47.858;9.594;2023-04-07T13:27:49;94920.50;;;19.19;28.37
18201;BME280;9226;47.858;9.594;2023-04-07T13:30:14;94918.53;;;19.28;28.42
18201;BME280;9226;47.858;9.594;2023-04-07T13:32:40;94922.84;;;19.44;28.71
18201;BME280;9226;47.858;9.594;2023-04-07T13:35:06;94919.25;;;19.58;28.94